Time;durP1;ratioP1;P1;durP2;ratioP2;P2;SDS_P1;SDS_P2;PMS_P1;PMS_P2;Temp;Humidity;BMP_temperature;BMP_pressure;BME280_temperature;BME280_humidity;BME280_pressure;Samples;Min_cycle;Max_cycle;Signal;HPM_P1;HPM_P2
2021/11/30 00:02:06;;;;;;;;;;;7.60;92.70;;;;;;5120568;27;19938;-79
2021/11/30 00:04:34;;;;;;;;;;;7.70;92.80;;;;;;5145727;27;19954;-78
2021/11/30 00:07:01;;;;;;;;;;;7.70;92.80;;;;;;5149873;27;19930;-77
2021/11/30 00:12:08;;;;;;;;;;;7.80;92.80;;;;;;5135334;27;19924;-79
2021/11/30 00:14:36;;;;;;;;;;;7.80;92.80;;;;;;5151327;27;19922;-79
2021/11/30 00:17:05;;;;;;;;;;;7.90;92.80;;;;;;5137067;27;19943;-79
2021/11/30 00:19:32;;;;;;;;;;;7.90;92.80;;;;;;5146069;27;19923;-79
2021/11/30 00:22:00;;;;;;;;;;;8.00;92.70;;;;;;5155977;27;19923;-79
2021/11/30 00:24:29;;;;;;;;;;;8.00;92.70;;;;;;5145166;27;19927;-79
2021/11/30 00:26:57;;;;;;;;;;;8.10;92.70;;;;;;5135418;27;20296;-79
2021/11/30 00:29:25;;;;;;;;;;;8.10;92.60;;;;;;5151196;27;20317;-79
2021/11/30 00:31:53;;;;;;;;;;;8.10;92.60;;;;;;5117716;27;19932;-79
2021/11/30 00:34:20;;;;;;;;;;;8.10;92.50;;;;;;5135514;27;20395;-79
2021/11/30 00:36:48;;;;;;;;;;;8.20;92.50;;;;;;5149250;27;19923;-79
2021/11/30 00:39:16;;;;;;;;;;;8.20;92.50;;;;;;5143095;27;19931;-78
2021/11/30 00:41:48;;;;;;;;;;;8.20;92.50;;;;;;5123266;27;19927;-79
2021/11/30 00:44:17;;;;;;;;;;;8.20;92.50;;;;;;5143626;27;19934;-78
2021/11/30 00:46:46;;;;;;;;;;;8.30;92.40;;;;;;5134393;27;19924;-78
2021/11/30 00:49:14;;;;;;;;;;;8.30;92.40;;;;;;5135375;27;19924;-79
2021/11/30 00:51:43;;;;;;;;;;;8.30;92.40;;;;;;5151372;27;19923;-79
2021/11/30 00:54:11;;;;;;;;;;;8.30;92.30;;;;;;5155158;27;19923;-79
2021/11/30 00:56:40;;;;;;;;;;;8.30;92.30;;;;;;5132433;27;20048;-78
2021/11/30 00:59:08;;;;;;;;;;;8.40;92.20;;;;;;5143334;27;19930;-79
2021/11/30 01:01:36;;;;;;;;;;;8.40;92.20;;;;;;5143904;27;19935;-80
2021/11/30 01:04:05;;;;;;;;;;;8.40;92.20;;;;;;5154504;27;19923;-80
2021/11/30 01:06:34;;;;;;;;;;;8.40;92.20;;;;;;5139910;27;19923;-79
2021/11/30 01:09:02;;;;;;;;;;;8.40;92.20;;;;;;5144274;27;19933;-79
2021/11/30 01:11:30;;;;;;;;;;;8.40;92.10;;;;;;5134226;27;19927;-79
2021/11/30 01:13:57;;;;;;;;;;;8.50;92.00;;;;;;5142359;27;19923;-79
2021/11/30 01:16:24;;;;;;;;;;;8.50;91.90;;;;;;5119887;27;19928;-79
2021/11/30 01:18:52;;;;;;;;;;;8.50;91.90;;;;;;5153340;27;19924;-78
2021/11/30 01:21:19;;;;;;;;;;;8.50;91.90;;;;;;5149736;27;19930;-79
2021/11/30 01:23:47;;;;;;;;;;;8.50;91.90;;;;;;5143958;27;19945;-79
2021/11/30 01:26:14;;;;;;;;;;;8.50;91.90;;;;;;5154031;27;20493;-79
2021/11/30 01:28:42;;;;;;;;;;;8.50;91.90;;;;;;5140134;27;19946;-80
2021/11/30 01:31:10;;;;;;;;;;;8.60;91.90;;;;;;5137431;27;19930;-80
2021/11/30 01:33:38;;;;;;;;;;;8.50;91.90;;;;;;5154013;27;19923;-79
2021/11/30 01:36:05;;;;;;;;;;;8.60;91.90;;;;;;5148682;27;19923;-80
2021/11/30 01:38:33;;;;;;;;;;;8.60;91.90;;;;;;5140024;27;19964;-79
2021/11/30 01:41:03;;;;;;;;;;;8.60;91.80;;;;;;5153217;27;19935;-80
2021/11/30 01:43:50;;;;;;;;;;;8.60;91.80;;;;;;5142673;27;20296;-79
2021/11/30 01:51:33;;;;;;;;;;;8.60;91.90;;;;;;5133432;27;19927;-79
2021/11/30 01:54:01;;;;;;;;;;;8.70;91.90;;;;;;5124215;27;19937;-79
2021/11/30 01:56:29;;;;;;;;;;;8.60;92.00;;;;;;5153756;27;19923;-79
2021/11/30 01:58:57;;;;;;;;;;;8.60;92.00;;;;;;5135222;27;20005;-80
2021/11/30 02:01:25;;;;;;;;;;;8.60;92.10;;;;;;5134757;27;19931;-78
2021/11/30 02:03:54;;;;;;;;;;;8.60;92.20;;;;;;5144601;27;20300;-78
2021/11/30 02:06:21;;;;;;;;;;;8.60;92.30;;;;;;5135247;27;19923;-77
2021/11/30 02:08:49;;;;;;;;;;;8.60;92.60;;;;;;5136636;27;19946;-77
2021/11/30 02:11:18;;;;;;;;;;;8.60;92.80;;;;;;5132425;27;19931;-77
2021/11/30 02:13:46;;;;;;;;;;;8.60;92.90;;;;;;5132530;27;19930;-77
2021/11/30 02:16:17;;;;;;;;;;;8.50;93.10;;;;;;5133163;27;19928;-77
2021/11/30 02:18:46;;;;;;;;;;;8.50;93.20;;;;;;5134424;27;19923;-77
2021/11/30 02:21:15;;;;;;;;;;;8.50;93.40;;;;;;5128533;28;19931;-77
2021/11/30 02:23:58;;;;;;;;;;;8.50;93.40;;;;;;5137742;27;19945;-77
2021/11/30 02:26:27;;;;;;;;;;;8.50;93.50;;;;;;5153434;27;19923;-77
2021/11/30 02:28:57;;;;;;;;;;;8.50;93.60;;;;;;5135517;27;19931;-77
2021/11/30 02:31:26;;;;;;;;;;;8.60;93.60;;;;;;5152088;27;19926;-77
2021/11/30 02:33:54;;;;;;;;;;;8.60;93.70;;;;;;5145571;27;19928;-77
2021/11/30 02:39:14;;;;;;;;;;;8.50;93.80;;;;;;5142871;27;19923;-77
2021/11/30 02:41:43;;;;;;;;;;;8.60;93.90;;;;;;5137444;27;19930;-77
2021/11/30 02:44:12;;;;;;;;;;;8.60;93.90;;;;;;5128534;27;19923;-77
2021/11/30 02:46:51;;;;;;;;;;;8.60;93.90;;;;;;5147925;27;19923;-76
2021/11/30 02:49:20;;;;;;;;;;;8.60;93.90;;;;;;5140506;27;20393;-77
2021/11/30 02:51:51;;;;;;;;;;;8.60;94.00;;;;;;5136126;27;20284;-77
2021/11/30 02:54:21;;;;;;;;;;;8.60;94.00;;;;;;5136305;27;19938;-76
2021/11/30 02:56:53;;;;;;;;;;;8.70;94.10;;;;;;5135601;27;19924;-78
2021/11/30 02:59:22;;;;;;;;;;;8.70;94.10;;;;;;5117917;27;20310;-74
2021/11/30 03:01:55;;;;;;;;;;;8.70;94.10;;;;;;5128933;27;20372;-77
2021/11/30 03:04:23;;;;;;;;;;;8.70;94.20;;;;;;5137231;27;19930;-77
2021/11/30 03:06:51;;;;;;;;;;;8.80;94.20;;;;;;5142711;27;19923;-76
2021/11/30 03:09:19;;;;;;;;;;;8.80;94.20;;;;;;5110442;27;19947;-76
2021/11/30 03:11:46;;;;;;;;;;;8.80;94.20;;;;;;5144163;27;19923;-77
2021/11/30 03:14:13;;;;;;;;;;;8.80;94.30;;;;;;5121258;27;19923;-76
2021/11/30 03:16:41;;;;;;;;;;;8.80;94.30;;;;;;5151845;27;19923;-76
2021/11/30 03:19:09;;;;;;;;;;;8.80;94.30;;;;;;5136264;27;20288;-74
2021/11/30 03:21:36;;;;;;;;;;;8.80;94.30;;;;;;5144218;27;19923;-75
2021/11/30 03:24:04;;;;;;;;;;;8.80;94.30;;;;;;5136999;27;19930;-75
2021/11/30 03:26:31;;;;;;;;;;;8.80;94.30;;;;;;5135789;27;20280;-75
2021/11/30 03:28:59;;;;;;;;;;;8.80;94.20;;;;;;5154803;27;19927;-75
2021/11/30 03:34:10;;;;;;;;;;;8.90;94.10;;;;;;5137032;27;19931;-75
2021/11/30 03:36:38;;;;;;;;;;;8.90;94.10;;;;;;5154166;27;19930;-75
2021/11/30 03:39:11;;;;;;;;;;;8.90;94.00;;;;;;5141718;27;19923;-75
2021/11/30 03:41:39;;;;;;;;;;;8.90;93.90;;;;;;5155843;27;19923;-75
2021/11/30 03:44:07;;;;;;;;;;;8.90;93.90;;;;;;5144378;27;19931;-75
2021/11/30 03:46:34;;;;;;;;;;;8.90;93.90;;;;;;5135357;27;19927;-74
2021/11/30 03:49:04;;;;;;;;;;;8.90;94.00;;;;;;5135365;27;19928;-75
2021/11/30 03:51:32;;;;;;;;;;;8.90;93.90;;;;;;5135314;27;19950;-76
2021/11/30 03:53:59;;;;;;;;;;;8.90;93.90;;;;;;5116975;27;19930;-75
2021/11/30 03:56:27;;;;;;;;;;;9.00;93.90;;;;;;5116850;27;19924;-75
2021/11/30 03:58:54;;;;;;;;;;;8.90;93.90;;;;;;5137975;27;19923;-75
2021/11/30 04:01:22;;;;;;;;;;;8.90;94.00;;;;;;5131390;27;19924;-76
2021/11/30 04:03:50;;;;;;;;;;;8.90;94.00;;;;;;5135272;27;19923;-76
2021/11/30 04:06:17;;;;;;;;;;;9.00;94.00;;;;;;5121378;27;19923;-76
2021/11/30 04:08:45;;;;;;;;;;;9.00;94.00;;;;;;5134607;27;19931;-75
2021/11/30 04:11:12;;;;;;;;;;;8.90;94.10;;;;;;5120510;27;20001;-77
2021/11/30 04:13:39;;;;;;;;;;;9.00;94.10;;;;;;5116446;27;20303;-75
2021/11/30 04:16:07;;;;;;;;;;;9.00;94.10;;;;;;5116691;27;19938;-75
2021/11/30 04:18:34;;;;;;;;;;;9.00;94.10;;;;;;5134961;27;19931;-75
2021/11/30 04:21:02;;;;;;;;;;;9.00;94.10;;;;;;5116855;27;19924;-75
2021/11/30 04:23:29;;;;;;;;;;;9.00;94.10;;;;;;5152923;27;19923;-75
2021/11/30 04:25:56;;;;;;;;;;;9.00;94.20;;;;;;5149076;27;19928;-75
2021/11/30 04:28:24;;;;;;;;;;;9.00;94.30;;;;;;5134671;27;19924;-74
2021/11/30 04:30:51;;;;;;;;;;;9.00;94.40;;;;;;5134692;27;19924;-76
2021/11/30 04:33:19;;;;;;;;;;;9.00;94.40;;;;;;5134405;27;19923;-74
2021/11/30 04:35:46;;;;;;;;;;;9.00;94.40;;;;;;5149863;27;20303;-74
2021/11/30 04:38:13;;;;;;;;;;;9.00;94.50;;;;;;5147245;27;19931;-74
2021/11/30 04:40:41;;;;;;;;;;;9.00;94.50;;;;;;5146052;27;19923;-74
2021/11/30 04:43:09;;;;;;;;;;;9.00;94.50;;;;;;5138816;27;19923;-75
2021/11/30 04:48:15;;;;;;;;;;;9.00;94.70;;;;;;5115294;27;19923;-75
2021/11/30 04:50:46;;;;;;;;;;;9.10;94.70;;;;;;5116315;27;19923;-75
2021/11/30 04:53:14;;;;;;;;;;;9.10;94.70;;;;;;5138901;27;19927;-75
2021/11/30 04:55:41;;;;;;;;;;;9.20;94.70;;;;;;5135789;27;19930;-75
2021/11/30 04:58:09;;;;;;;;;;;9.10;94.60;;;;;;5154242;27;19930;-75
2021/11/30 05:00:37;;;;;;;;;;;9.10;94.60;;;;;;5144737;27;19931;-75
2021/11/30 05:03:06;;;;;;;;;;;9.20;94.60;;;;;;5127410;27;20368;-75
2021/11/30 05:05:33;;;;;;;;;;;9.20;94.60;;;;;;5154661;27;19942;-75
2021/11/30 05:08:01;;;;;;;;;;;9.20;94.60;;;;;;5127968;27;19930;-75
2021/11/30 05:10:28;;;;;;;;;;;9.20;94.70;;;;;;5123160;27;20280;-75
2021/11/30 05:12:56;;;;;;;;;;;9.20;94.60;;;;;;5145514;27;19930;-75
2021/11/30 05:15:23;;;;;;;;;;;9.30;94.70;;;;;;5151646;27;19923;-75
2021/11/30 05:17:51;;;;;;;;;;;9.20;94.70;;;;;;5153019;27;19923;-75
2021/11/30 05:20:18;;;;;;;;;;;9.20;94.70;;;;;;5154003;27;20291;-76
2021/11/30 05:22:45;;;;;;;;;;;9.30;94.70;;;;;;5143300;27;19923;-75
2021/11/30 05:25:21;;;;;;;;;;;9.30;94.70;;;;;;5148296;27;19923;-75
2021/11/30 05:27:50;;;;;;;;;;;9.30;94.70;;;;;;5153246;27;20291;-75
2021/11/30 05:30:20;;;;;;;;;;;9.30;94.70;;;;;;5116888;27;19934;-75
2021/11/30 05:32:48;;;;;;;;;;;9.30;94.60;;;;;;5153667;27;19927;-75
2021/11/30 05:35:15;;;;;;;;;;;9.30;94.70;;;;;;5152154;27;20283;-77
2021/11/30 05:37:43;;;;;;;;;;;9.30;94.60;;;;;;5153246;27;19923;-75
2021/11/30 05:40:10;;;;;;;;;;;9.30;94.60;;;;;;5153255;27;19959;-76
2021/11/30 05:42:38;;;;;;;;;;;9.30;94.50;;;;;;5141968;27;19945;-75
2021/11/30 05:45:05;;;;;;;;;;;9.30;94.50;;;;;;5153096;27;20371;-75
2021/11/30 05:47:33;;;;;;;;;;;9.30;94.50;;;;;;5132271;27;19946;-76
2021/11/30 05:50:00;;;;;;;;;;;9.40;94.40;;;;;;5142011;27;20333;-75
2021/11/30 05:52:28;;;;;;;;;;;9.40;94.40;;;;;;5146568;27;20391;-75
2021/11/30 05:54:55;;;;;;;;;;;9.40;94.30;;;;;;5135516;27;19942;-76
2021/11/30 05:57:23;;;;;;;;;;;9.50;94.20;;;;;;5123816;27;19938;-76
2021/11/30 05:59:51;;;;;;;;;;;9.50;94.20;;;;;;5142151;27;19945;-76
2021/11/30 06:02:20;;;;;;;;;;;9.50;94.20;;;;;;5148073;27;20339;-77
2021/11/30 06:04:48;;;;;;;;;;;9.50;94.10;;;;;;5116945;27;19926;-76
2021/11/30 06:07:15;;;;;;;;;;;9.50;94.10;;;;;;5154102;27;20391;-76
2021/11/30 06:09:43;;;;;;;;;;;9.50;94.10;;;;;;5141493;27;20272;-77
2021/11/30 06:12:10;;;;;;;;;;;9.50;94.10;;;;;;5137303;27;19923;-77
2021/11/30 06:14:37;;;;;;;;;;;9.50;94.00;;;;;;5138693;27;19931;-77
2021/11/30 06:17:06;;;;;;;;;;;9.50;94.00;;;;;;5137346;27;20288;-77
2021/11/30 06:19:35;;;;;;;;;;;9.50;94.00;;;;;;5138525;27;19925;-77
2021/11/30 06:22:03;;;;;;;;;;;9.50;93.90;;;;;;5118890;27;19923;-77
2021/11/30 06:24:30;;;;;;;;;;;9.50;93.90;;;;;;5149522;27;19923;-77
2021/11/30 06:26:57;;;;;;;;;;;9.50;93.80;;;;;;5144078;27;20425;-77
2021/11/30 06:29:25;;;;;;;;;;;9.50;93.80;;;;;;5139103;27;19930;-78
2021/11/30 06:31:52;;;;;;;;;;;9.50;93.80;;;;;;5136202;27;19927;-77
2021/11/30 06:34:20;;;;;;;;;;;9.50;93.80;;;;;;5137886;27;19924;-77
2021/11/30 06:36:47;;;;;;;;;;;9.50;93.80;;;;;;5138235;27;19923;-77
2021/11/30 06:39:14;;;;;;;;;;;9.50;93.80;;;;;;5121457;27;19924;-77
2021/11/30 06:41:42;;;;;;;;;;;9.50;93.80;;;;;;5146989;27;19923;-77
2021/11/30 06:44:09;;;;;;;;;;;9.60;93.80;;;;;;5138884;27;19923;-77
2021/11/30 06:46:37;;;;;;;;;;;9.50;93.80;;;;;;5138821;27;20268;-76
2021/11/30 06:49:05;;;;;;;;;;;9.50;93.80;;;;;;5157187;27;19923;-77
2021/11/30 06:51:32;;;;;;;;;;;9.50;93.80;;;;;;5149431;27;19930;-77
2021/11/30 06:53:59;;;;;;;;;;;9.50;93.80;;;;;;5118690;27;19927;-79
2021/11/30 06:56:27;;;;;;;;;;;9.50;93.80;;;;;;5136258;27;20284;-78
2021/11/30 06:58:55;;;;;;;;;;;9.60;93.80;;;;;;5125651;27;19930;-77
2021/11/30 07:01:22;;;;;;;;;;;9.50;93.70;;;;;;5142301;27;20293;-78
2021/11/30 07:03:50;;;;;;;;;;;9.50;93.70;;;;;;5155714;27;19923;-78
2021/11/30 07:06:28;;;;;;;;;;;9.50;93.70;;;;;;5154091;27;19923;-78
2021/11/30 07:09:16;;;;;;;;;;;9.60;93.70;;;;;;5155944;27;20368;-78
2021/11/30 07:14:15;;;;;;;;;;;9.60;93.60;;;;;;5144596;27;19934;-79
2021/11/30 07:16:42;;;;;;;;;;;9.60;93.50;;;;;;5141945;27;20315;-79
2021/11/30 07:19:13;;;;;;;;;;;9.60;93.40;;;;;;5143752;27;20311;-78
2021/11/30 07:21:42;;;;;;;;;;;9.60;93.40;;;;;;5146069;27;19923;-78
2021/11/30 07:24:09;;;;;;;;;;;9.70;93.40;;;;;;5150503;27;19923;-78
2021/11/30 07:26:37;;;;;;;;;;;9.70;93.30;;;;;;5126999;27;20406;-77
2021/11/30 07:29:23;;;;;;;;;;;9.70;93.30;;;;;;5140093;27;19923;-77
2021/11/30 07:31:50;;;;;;;;;;;9.70;93.30;;;;;;5126448;27;19931;-78
2021/11/30 07:34:18;;;;;;;;;;;9.70;93.20;;;;;;5136427;27;19930;-78
2021/11/30 07:36:45;;;;;;;;;;;9.70;93.20;;;;;;5141430;27;20381;-78
2021/11/30 07:39:12;;;;;;;;;;;9.70;93.00;;;;;;5149415;27;19923;-79
2021/11/30 07:41:40;;;;;;;;;;;9.70;92.90;;;;;;5151634;27;20402;-79
2021/11/30 07:44:07;;;;;;;;;;;9.70;92.80;;;;;;5136160;27;20317;-77
2021/11/30 07:46:35;;;;;;;;;;;9.70;92.80;;;;;;5137629;27;20417;-77
2021/11/30 07:49:03;;;;;;;;;;;9.80;92.70;;;;;;5152500;27;19930;-78
2021/11/30 07:51:32;;;;;;;;;;;9.80;92.70;;;;;;5133611;27;19934;-78
2021/11/30 07:53:59;;;;;;;;;;;9.70;92.70;;;;;;5120472;27;19928;-78
2021/11/30 07:56:27;;;;;;;;;;;9.80;92.70;;;;;;5117000;27;19923;-78
2021/11/30 07:58:54;;;;;;;;;;;9.70;92.60;;;;;;5121880;27;19930;-78
2021/11/30 08:01:23;;;;;;;;;;;9.80;92.50;;;;;;5142181;27;19931;-77
2021/11/30 08:03:51;;;;;;;;;;;9.80;92.60;;;;;;5117086;27;19927;-78
2021/11/30 08:06:18;;;;;;;;;;;9.80;92.50;;;;;;5139265;27;20296;-78
2021/11/30 08:08:49;;;;;;;;;;;9.80;92.50;;;;;;5129272;27;20299;-77
2021/11/30 08:11:17;;;;;;;;;;;9.80;92.40;;;;;;5155740;27;19937;-79
2021/11/30 08:13:44;;;;;;;;;;;9.80;92.40;;;;;;5159899;27;19946;-79
2021/11/30 08:16:12;;;;;;;;;;;9.80;92.30;;;;;;5135540;27;19923;-78
2021/11/30 08:18:39;;;;;;;;;;;9.80;92.40;;;;;;5156498;27;19927;-78
2021/11/30 08:21:07;;;;;;;;;;;9.80;92.40;;;;;;5138343;27;19997;-77
2021/11/30 08:23:35;;;;;;;;;;;9.80;92.40;;;;;;5116389;27;19923;-78
2021/11/30 08:26:03;;;;;;;;;;;9.80;92.30;;;;;;5145581;27;19923;-78
2021/11/30 08:28:30;;;;;;;;;;;9.80;92.40;;;;;;5124220;27;19923;-79
2021/11/30 08:30:58;;;;;;;;;;;9.80;92.30;;;;;;5119629;27;20423;-79
2021/11/30 08:33:25;;;;;;;;;;;9.80;92.30;;;;;;5147723;27;20277;-78
2021/11/30 08:35:55;;;;;;;;;;;9.80;92.20;;;;;;5139621;27;19924;-80
2021/11/30 08:38:23;;;;;;;;;;;9.80;92.10;;;;;;5137707;27;20387;-79
2021/11/30 08:40:51;;;;;;;;;;;9.80;92.00;;;;;;5117362;27;19924;-77
2021/11/30 08:43:18;;;;;;;;;;;9.80;92.00;;;;;;5135252;27;19946;-76
2021/11/30 08:45:46;;;;;;;;;;;9.80;92.00;;;;;;5143930;27;19923;-77
2021/11/30 08:48:14;;;;;;;;;;;9.80;92.00;;;;;;5145127;27;19923;-77
2021/11/30 08:50:41;;;;;;;;;;;9.80;92.00;;;;;;5143491;27;19930;-80
2021/11/30 08:53:09;;;;;;;;;;;9.90;92.00;;;;;;5134926;27;19931;-79
2021/11/30 08:55:37;;;;;;;;;;;9.90;91.90;;;;;;5135139;27;19930;-78
2021/11/30 08:58:05;;;;;;;;;;;9.90;91.90;;;;;;5118285;27;19946;-79
2021/11/30 09:00:32;;;;;;;;;;;10.00;92.00;;;;;;5144280;27;19927;-79
2021/11/30 09:03:00;;;;;;;;;;;9.90;92.00;;;;;;5143918;27;19926;-79
2021/11/30 09:05:27;;;;;;;;;;;10.00;91.90;;;;;;5142822;27;19930;-79
2021/11/30 09:07:56;;;;;;;;;;;10.00;91.90;;;;;;5142125;27;19927;-78
2021/11/30 09:10:25;;;;;;;;;;;10.00;91.90;;;;;;5142139;27;19924;-79
2021/11/30 09:12:52;;;;;;;;;;;10.00;91.90;;;;;;5118102;27;19934;-78
2021/11/30 09:15:20;;;;;;;;;;;10.10;91.90;;;;;;5141307;27;20303;-78
2021/11/30 09:17:49;;;;;;;;;;;10.00;91.70;;;;;;5111197;27;19923;-79
2021/11/30 09:20:17;;;;;;;;;;;10.10;91.50;;;;;;5115271;27;19924;-79
2021/11/30 09:22:45;;;;;;;;;;;10.10;91.50;;;;;;5123043;27;19927;-79
2021/11/30 09:25:12;;;;;;;;;;;10.10;91.50;;;;;;5154250;27;19931;-78
2021/11/30 09:27:39;;;;;;;;;;;10.00;91.70;;;;;;5105187;27;19931;-80
2021/11/30 09:30:09;;;;;;;;;;;10.00;91.50;;;;;;5136979;27;19931;-79
2021/11/30 09:32:36;;;;;;;;;;;10.00;91.50;;;;;;5140522;27;19938;-79
2021/11/30 09:35:07;;;;;;;;;;;10.00;91.40;;;;;;5137602;27;20295;-80
2021/11/30 09:37:37;;;;;;;;;;;10.00;91.50;;;;;;5136657;27;20376;-80
2021/11/30 09:40:07;;;;;;;;;;;10.00;91.40;;;;;;5134629;27;19930;-81
2021/11/30 09:42:35;;;;;;;;;;;10.00;91.40;;;;;;5150324;27;19930;-80
2021/11/30 09:45:05;;;;;;;;;;;10.10;91.50;;;;;;5116015;28;19931;-80
2021/11/30 09:47:33;;;;;;;;;;;10.00;91.60;;;;;;5133840;27;19958;-80
2021/11/30 09:50:02;;;;;;;;;;;10.10;91.70;;;;;;5134401;28;19942;-81
2021/11/30 09:52:30;;;;;;;;;;;10.10;91.70;;;;;;5142227;27;19923;-80
2021/11/30 09:54:57;;;;;;;;;;;10.20;91.70;;;;;;5152041;27;19923;-79
2021/11/30 09:57:29;;;;;;;;;;;10.20;91.50;;;;;;5151827;27;19923;-79
2021/11/30 09:59:57;;;;;;;;;;;10.20;91.40;;;;;;5137056;27;19930;-80
2021/11/30 10:02:36;;;;;;;;;;;10.20;91.40;;;;;;5145025;27;20682;-78
2021/11/30 10:05:04;;;;;;;;;;;10.30;91.30;;;;;;5143043;27;19924;-80
2021/11/30 10:07:37;;;;;;;;;;;10.30;91.00;;;;;;5139147;27;20396;-79
2021/11/30 10:10:19;;;;;;;;;;;10.40;90.70;;;;;;5142736;27;20412;-79
2021/11/30 10:13:05;;;;;;;;;;;10.40;90.60;;;;;;5141630;27;19931;-79
2021/11/30 10:15:44;;;;;;;;;;;10.50;90.50;;;;;;5143855;27;19923;-79
2021/11/30 10:18:16;;;;;;;;;;;10.60;90.20;;;;;;5142638;27;19938;-83
2021/11/30 10:20:44;;;;;;;;;;;10.60;90.10;;;;;;5086811;27;19923;-83
2021/11/30 10:23:11;;;;;;;;;;;10.70;89.90;;;;;;5122009;27;19927;-83
2021/11/30 10:25:40;;;;;;;;;;;10.80;89.60;;;;;;5142392;27;19931;-82
2021/11/30 10:28:11;;;;;;;;;;;10.80;89.50;;;;;;5118839;28;19924;-83
2021/11/30 10:30:40;;;;;;;;;;;10.90;89.40;;;;;;5135347;27;19934;-75
2021/11/30 10:33:13;;;;;;;;;;;10.90;89.30;;;;;;5138931;27;20455;-76
2021/11/30 10:35:40;;;;;;;;;;;10.90;89.10;;;;;;5141444;27;19939;-75
2021/11/30 10:38:08;;;;;;;;;;;11.00;88.90;;;;;;5123128;27;20030;-76
2021/11/30 10:40:37;;;;;;;;;;;10.90;88.90;;;;;;5141887;27;19930;-76
2021/11/30 10:43:09;;;;;;;;;;;11.00;88.80;;;;;;5140224;27;19930;-76
2021/11/30 10:45:43;;;;;;;;;;;11.00;88.90;;;;;;5141358;27;19924;-76
2021/11/30 10:48:15;;;;;;;;;;;11.00;88.90;;;;;;5135753;27;19942;-75
2021/11/30 10:50:47;;;;;;;;;;;10.90;88.90;;;;;;5131860;27;19924;-76
2021/11/30 10:53:20;;;;;;;;;;;11.00;88.90;;;;;;5119516;27;19923;-76
2021/11/30 10:55:54;;;;;;;;;;;11.00;88.70;;;;;;5140271;27;20387;-75
2021/11/30 10:58:23;;;;;;;;;;;11.00;88.60;;;;;;5158120;27;19927;-76
2021/11/30 11:00:51;;;;;;;;;;;11.00;88.20;;;;;;5158139;27;19923;-76
2021/11/30 11:03:23;;;;;;;;;;;11.10;88.20;;;;;;5150926;27;19924;-76
2021/11/30 11:08:42;;;;;;;;;;;11.10;88.30;;;;;;5130090;27;19933;-76
2021/11/30 11:11:11;;;;;;;;;;;11.20;88.00;;;;;;5137464;27;19930;-76
2021/11/30 11:13:39;;;;;;;;;;;11.30;88.10;;;;;;5139868;27;20312;-77
2021/11/30 11:16:08;;;;;;;;;;;11.40;87.80;;;;;;5145032;27;19924;-76
2021/11/30 11:18:37;;;;;;;;;;;11.60;87.70;;;;;;5144695;27;19923;-77
2021/11/30 11:21:10;;;;;;;;;;;11.80;87.30;;;;;;5144793;27;20690;-76
2021/11/30 11:23:42;;;;;;;;;;;11.80;86.40;;;;;;5144460;27;19924;-76
2021/11/30 11:26:27;;;;;;;;;;;11.80;85.90;;;;;;5145904;27;19938;-76
2021/11/30 11:28:55;;;;;;;;;;;11.80;85.90;;;;;;5128010;27;20540;-76
2021/11/30 11:31:24;;;;;;;;;;;11.90;85.90;;;;;;5143732;27;19924;-75
2021/11/30 11:33:52;;;;;;;;;;;11.90;85.50;;;;;;5126155;27;19934;-75
2021/11/30 11:36:19;;;;;;;;;;;12.00;85.50;;;;;;5125120;27;19923;-76
2021/11/30 11:38:47;;;;;;;;;;;12.00;85.40;;;;;;5123447;27;19924;-76
2021/11/30 11:41:14;;;;;;;;;;;12.10;85.30;;;;;;5144425;27;19931;-76
2021/11/30 11:43:42;;;;;;;;;;;12.10;85.30;;;;;;5145367;27;19931;-77
2021/11/30 11:46:11;;;;;;;;;;;12.00;85.40;;;;;;5144859;27;19923;-76
2021/11/30 11:48:39;;;;;;;;;;;12.00;85.20;;;;;;5145966;27;19923;-75
2021/11/30 11:51:08;;;;;;;;;;;12.00;85.70;;;;;;5126366;27;19927;-76
2021/11/30 11:53:40;;;;;;;;;;;12.10;85.40;;;;;;5140503;27;20666;-76
2021/11/30 11:56:07;;;;;;;;;;;12.20;84.90;;;;;;5124418;27;19927;-76
2021/11/30 11:58:35;;;;;;;;;;;12.50;85.00;;;;;;5143361;27;20331;-76
2021/11/30 12:01:02;;;;;;;;;;;12.90;83.40;;;;;;5144607;27;20423;-76
2021/11/30 12:03:49;;;;;;;;;;;13.10;82.70;;;;;;5144138;27;19923;-76
2021/11/30 12:06:20;;;;;;;;;;;13.30;82.00;;;;;;5144478;27;19942;-76
2021/11/30 12:09:06;;;;;;;;;;;13.70;81.00;;;;;;5125682;27;19931;-77
2021/11/30 12:11:35;;;;;;;;;;;14.10;79.60;;;;;;5145098;27;19927;-77
2021/11/30 12:14:19;;;;;;;;;;;14.60;79.20;;;;;;5144630;27;19923;-77
2021/11/30 12:17:04;;;;;;;;;;;14.80;77.00;;;;;;5126914;27;19934;-76
2021/11/30 12:19:35;;;;;;;;;;;14.80;76.50;;;;;;5129932;27;19923;-77
2021/11/30 12:22:03;;;;;;;;;;;15.00;76.10;;;;;;5143226;27;19928;-76
2021/11/30 12:24:34;;;;;;;;;;;15.10;75.10;;;;;;5141316;27;19930;-77
2021/11/30 12:27:22;;;;;;;;;;;14.90;75.20;;;;;;5123731;27;19927;-77
2021/11/30 12:29:50;;;;;;;;;;;14.60;75.80;;;;;;5125591;27;19924;-75
2021/11/30 12:32:22;;;;;;;;;;;14.40;76.00;;;;;;5146460;27;20410;-76
2021/11/30 12:34:50;;;;;;;;;;;14.20;76.90;;;;;;5126781;27;19946;-81
2021/11/30 12:37:25;;;;;;;;;;;14.00;77.80;;;;;;5141872;27;19938;-81
2021/11/30 12:40:09;;;;;;;;;;;13.80;78.70;;;;;;5130433;27;19946;-87
2021/11/30 12:42:40;;;;;;;;;;;13.80;78.70;;;;;;5144048;27;19930;-80
2021/11/30 12:45:08;;;;;;;;;;;13.80;79.00;;;;;;5124718;27;19923;-79
2021/11/30 12:47:36;;;;;;;;;;;13.80;78.90;;;;;;5137477;27;19934;-81
2021/11/30 12:50:20;;;;;;;;;;;13.70;79.30;;;;;;5148632;27;19927;-80
2021/11/30 12:52:51;;;;;;;;;;;13.90;79.50;;;;;;5143367;27;19923;-80
2021/11/30 12:55:19;;;;;;;;;;;14.30;79.10;;;;;;5139701;27;19923;-79
2021/11/30 12:57:47;;;;;;;;;;;14.40;78.70;;;;;;5147939;27;19930;-80
2021/11/30 13:00:17;;;;;;;;;;;14.50;78.60;;;;;;5151793;27;19938;-81
2021/11/30 13:02:46;;;;;;;;;;;14.50;78.90;;;;;;5146070;27;19941;-80
2021/11/30 13:05:24;;;;;;;;;;;14.30;78.60;;;;;;5146846;27;19930;-83
2021/11/30 13:07:51;;;;;;;;;;;14.30;78.80;;;;;;5138553;27;19931;-87
2021/11/30 13:10:26;;;;;;;;;;;14.20;78.50;;;;;;5148962;27;20295;-86
2021/11/30 13:12:55;;;;;;;;;;;14.30;76.90;;;;;;5149650;27;19931;-81
2021/11/30 13:15:23;;;;;;;;;;;14.30;76.60;;;;;;5139693;27;19931;-82
2021/11/30 13:17:52;;;;;;;;;;;14.00;77.10;;;;;;5123667;27;19927;-82
2021/11/30 13:20:23;;;;;;;;;;;13.90;77.40;;;;;;5145392;27;19923;-83
2021/11/30 13:22:52;;;;;;;;;;;13.90;77.30;;;;;;5109993;27;20639;-81
2021/11/30 13:25:31;;;;;;;;;;;13.80;77.80;;;;;;5154286;27;19911;-85
2021/11/30 13:28:00;;;;;;;;;;;13.60;78.60;;;;;;5158209;27;19919;-86
2021/11/30 13:30:28;;;;;;;;;;;13.50;79.10;;;;;;5149829;27;19923;-85
2021/11/30 13:33:02;;;;;;;;;;;13.90;78.00;;;;;;5145073;27;19931;-85
2021/11/30 13:35:30;;;;;;;;;;;14.20;77.70;;;;;;5149708;27;19927;-85
2021/11/30 13:38:03;;;;;;;;;;;14.30;76.60;;;;;;5142249;27;20367;-85
2021/11/30 13:40:40;;;;;;;;;;;14.30;77.30;;;;;;5156521;27;19930;-84
2021/11/30 13:43:29;;;;;;;;;;;14.10;77.20;;;;;;5158118;27;19931;-86
2021/11/30 13:46:00;;;;;;;;;;;13.80;78.00;;;;;;5148734;27;19924;-85
2021/11/30 13:48:29;;;;;;;;;;;13.60;78.80;;;;;;5140905;27;19930;-84
2021/11/30 13:50:57;;;;;;;;;;;13.40;79.40;;;;;;5149540;27;20315;-84
2021/11/30 13:53:26;;;;;;;;;;;13.30;79.90;;;;;;5144464;27;20460;-84
2021/11/30 13:56:21;;;;;;;;;;;13.10;79.90;;;;;;5126833;27;19930;-83
2021/11/30 14:02:37;;;;;;;;;;;12.80;81.30;;;;;;5135409;27;19923;-84
2021/11/30 14:05:05;;;;;;;;;;;12.70;81.70;;;;;;5142747;27;19927;-82
2021/11/30 14:07:35;;;;;;;;;;;12.60;81.80;;;;;;5145741;27;19930;-83
2021/11/30 14:10:22;;;;;;;;;;;12.50;82.00;;;;;;5145480;27;20372;-85
2021/11/30 14:12:53;;;;;;;;;;;12.30;82.30;;;;;;5145686;27;19927;-84
2021/11/30 14:15:21;;;;;;;;;;;12.30;82.60;;;;;;5141225;27;20624;-84
2021/11/30 14:18:00;;;;;;;;;;;12.20;82.90;;;;;;5128635;27;20058;-84
2021/11/30 14:20:28;;;;;;;;;;;12.20;83.10;;;;;;5141017;27;20408;-80
2021/11/30 14:22:56;;;;;;;;;;;12.10;83.40;;;;;;5147847;27;19923;-81
2021/11/30 14:25:24;;;;;;;;;;;12.00;83.50;;;;;;5146214;27;19934;-82
2021/11/30 14:28:00;;;;;;;;;;;12.00;83.80;;;;;;5145798;27;19938;-84
2021/11/30 14:30:35;;;;;;;;;;;11.90;84.00;;;;;;5145047;27;19923;-84
2021/11/30 14:33:03;;;;;;;;;;;11.90;84.10;;;;;;5147307;27;19931;-83
2021/11/30 14:35:43;;;;;;;;;;;11.80;84.10;;;;;;5146843;27;20272;-82
2021/11/30 14:38:26;;;;;;;;;;;11.80;84.10;;;;;;5145709;27;19923;-82
2021/11/30 14:41:07;;;;;;;;;;;11.70;84.30;;;;;;5147651;27;19927;-83
2021/11/30 14:43:40;;;;;;;;;;;11.60;84.60;;;;;;5146537;27;20298;-83
2021/11/30 14:46:08;;;;;;;;;;;11.50;84.70;;;;;;5146652;27;19923;-84
2021/11/30 14:48:42;;;;;;;;;;;11.40;84.90;;;;;;5148313;27;19923;-83
2021/11/30 14:51:11;;;;;;;;;;;11.30;85.20;;;;;;5132378;27;20646;-84
2021/11/30 14:53:43;;;;;;;;;;;11.20;85.30;;;;;;5148317;27;19923;-84
2021/11/30 14:56:13;;;;;;;;;;;11.20;85.50;;;;;;5144855;27;19924;-84
2021/11/30 14:58:41;;;;;;;;;;;11.10;85.60;;;;;;5148494;27;19927;-82
2021/11/30 15:01:13;;;;;;;;;;;11.10;85.60;;;;;;5144720;27;19923;-82
2021/11/30 15:03:45;;;;;;;;;;;11.10;85.60;;;;;;5124994;27;19934;-83